createdAt,value
2017-11-19T00:02:14.293Z,12.97
2017-11-19T00:04:41.771Z,12.83
2017-11-19T00:07:09.328Z,10.47
2017-11-19T00:09:36.813Z,12.40
2017-11-19T00:12:04.284Z,11.03
2017-11-19T00:14:31.790Z,13.10
2017-11-19T00:16:59.257Z,12.10
2017-11-19T00:19:26.749Z,13.80
2017-11-19T00:21:54.224Z,13.80
2017-11-19T00:24:21.684Z,14.00
2017-11-19T00:26:49.933Z,13.80
2017-11-19T00:29:17.416Z,13.30
2017-11-19T00:31:45.668Z,12.97
2017-11-19T00:34:13.147Z,12.97
2017-11-19T00:36:41.379Z,13.87
2017-11-19T00:39:08.844Z,12.63
2017-11-19T00:41:36.328Z,12.00
2017-11-19T00:44:04.570Z,11.70
2017-11-19T00:46:32.160Z,11.57
2017-11-19T00:49:00.421Z,13.17
2017-11-19T00:51:27.880Z,11.23
2017-11-19T00:53:56.872Z,10.63
2017-11-19T00:56:24.340Z,10.13
2017-11-19T00:58:52.587Z,11.40
2017-11-19T01:01:20.052Z,11.27
2017-11-19T01:03:47.527Z,9.10
2017-11-19T01:06:15.008Z,8.90
2017-11-19T01:08:42.468Z,8.77
2017-11-19T01:11:09.943Z,8.73
2017-11-19T01:13:37.432Z,8.37
2017-11-19T01:16:04.902Z,8.20
2017-11-19T01:18:32.374Z,7.53
2017-11-19T01:21:00.631Z,7.73
2017-11-19T01:23:28.097Z,8.60
2017-11-19T01:25:55.572Z,7.10
2017-11-19T01:28:23.811Z,6.80
2017-11-19T01:30:51.350Z,8.03
2017-11-19T01:33:18.836Z,7.53
2017-11-19T01:35:46.291Z,7.57
2017-11-19T01:38:13.747Z,7.27
2017-11-19T01:40:41.233Z,6.73
2017-11-19T01:43:09.473Z,8.10
2017-11-19T01:45:36.961Z,7.70
2017-11-19T01:48:05.214Z,7.00
2017-11-19T01:50:32.672Z,7.70
2017-11-19T01:53:00.232Z,6.90
2017-11-19T01:55:28.460Z,6.73
2017-11-19T01:57:55.925Z,7.77
2017-11-19T02:00:23.395Z,7.00
2017-11-19T02:02:50.852Z,7.13
2017-11-19T02:05:18.340Z,6.40
2017-11-19T02:07:46.563Z,6.50
2017-11-19T02:10:14.065Z,7.00
2017-11-19T02:12:41.521Z,7.93
2017-11-19T02:15:08.974Z,7.63
2017-11-19T02:17:36.524Z,9.20
2017-11-19T02:20:03.984Z,7.23
2017-11-19T02:22:31.471Z,8.80
2017-11-19T02:24:59.696Z,7.50
2017-11-19T02:27:27.178Z,8.53
2017-11-19T02:29:54.653Z,7.57
2017-11-19T02:32:23.687Z,8.90
2017-11-19T02:34:51.168Z,8.43
2017-11-19T02:37:18.620Z,6.97
2017-11-19T02:39:46.100Z,7.50
2017-11-19T02:42:13.572Z,7.47
2017-11-19T02:44:41.809Z,7.17
2017-11-19T02:47:09.314Z,7.60
2017-11-19T02:49:36.778Z,7.20
2017-11-19T02:52:04.242Z,6.93
2017-11-19T02:54:31.734Z,7.37
2017-11-19T02:56:59.188Z,7.30
2017-11-19T02:59:26.757Z,7.63
2017-11-19T03:01:54.217Z,6.80
2017-11-19T03:04:21.687Z,6.60
2017-11-19T03:06:49.148Z,7.00
2017-11-19T03:09:17.395Z,7.50
2017-11-19T03:11:44.871Z,7.10
2017-11-19T03:14:12.349Z,7.20
2017-11-19T03:16:40.596Z,7.73
2017-11-19T03:19:08.083Z,6.90
2017-11-19T03:21:36.304Z,6.27
2017-11-19T03:24:03.776Z,6.17
2017-11-19T03:26:31.236Z,7.03
2017-11-19T03:28:58.696Z,6.37
2017-11-19T03:31:26.177Z,5.60
2017-11-19T03:33:54.399Z,6.70
2017-11-19T03:36:21.993Z,5.70
2017-11-19T03:38:49.448Z,5.43
2017-11-19T03:41:16.911Z,5.30
2017-11-19T03:43:45.177Z,4.90
2017-11-19T03:46:12.655Z,5.63
2017-11-19T03:48:40.905Z,5.23
2017-11-19T03:51:08.363Z,5.10
2017-11-19T03:53:35.831Z,4.90
2017-11-19T03:56:04.065Z,4.30
2017-11-19T03:58:31.539Z,5.57
2017-11-19T04:00:58.990Z,5.70
2017-11-19T04:03:26.476Z,4.63
2017-11-19T04:05:53.948Z,4.13
2017-11-19T04:08:22.179Z,4.40
2017-11-19T04:10:49.653Z,4.70
2017-11-19T04:13:17.117Z,5.30
2017-11-19T04:15:44.571Z,4.43
2017-11-19T04:18:12.048Z,5.57
2017-11-19T04:20:40.276Z,5.20
2017-11-19T04:23:07.753Z,5.20
2017-11-19T04:25:35.216Z,4.60
2017-11-19T04:28:02.673Z,4.90
2017-11-19T04:30:30.146Z,4.33
2017-11-19T04:32:58.378Z,5.00
2017-11-19T04:35:25.964Z,4.93
2017-11-19T04:37:54.192Z,5.90
2017-11-19T04:40:21.673Z,5.53
2017-11-19T04:42:49.145Z,5.97
2017-11-19T04:45:18.149Z,6.03
2017-11-19T04:47:46.371Z,6.80
2017-11-19T04:50:13.828Z,5.90
2017-11-19T04:52:41.313Z,4.90
2017-11-19T04:55:08.781Z,5.63
2017-11-19T04:57:36.257Z,5.90
2017-11-19T05:00:04.513Z,4.83
2017-11-19T05:02:31.969Z,5.10
2017-11-19T05:04:59.534Z,5.60
2017-11-19T05:07:27.013Z,5.40
2017-11-19T05:09:55.256Z,5.10
2017-11-19T05:12:22.738Z,5.40
2017-11-19T05:14:50.975Z,5.47
2017-11-19T05:17:18.448Z,4.80
2017-11-19T05:19:45.915Z,4.97
2017-11-19T05:22:13.391Z,5.10
2017-11-19T05:24:40.844Z,5.63
2017-11-19T05:27:08.304Z,5.83
2017-11-19T05:29:35.784Z,5.67
2017-11-19T05:32:03.240Z,5.70
2017-11-19T05:34:30.709Z,5.40
2017-11-19T05:36:58.207Z,5.50
2017-11-19T05:39:26.435Z,5.57
2017-11-19T05:41:53.892Z,5.93
2017-11-19T05:44:21.363Z,5.73
2017-11-19T05:46:48.823Z,5.63
2017-11-19T05:49:16.291Z,6.67
2017-11-19T05:51:43.772Z,5.60
2017-11-19T05:54:12.028Z,5.43
2017-11-19T05:56:39.484Z,5.67
2017-11-19T05:59:06.951Z,5.20
2017-11-19T06:01:35.195Z,5.60
2017-11-19T06:04:02.688Z,6.60
2017-11-19T06:06:30.913Z,5.73
2017-11-19T06:08:58.391Z,5.53
2017-11-19T06:11:25.849Z,5.60
2017-11-19T06:13:53.313Z,5.47
2017-11-19T06:16:20.789Z,6.20
2017-11-19T06:18:49.012Z,5.43
2017-11-19T06:21:16.475Z,6.23
2017-11-19T06:23:43.953Z,6.33
2017-11-19T06:26:11.429Z,5.93
2017-11-19T06:28:39.657Z,5.30
2017-11-19T06:31:07.132Z,6.10
2017-11-19T06:33:34.582Z,5.10
2017-11-19T06:36:02.053Z,5.80
2017-11-19T06:38:29.524Z,5.93
2017-11-19T06:40:57.767Z,4.93
2017-11-19T06:43:25.240Z,5.23
2017-11-19T06:45:52.708Z,5.03
2017-11-19T06:48:20.186Z,5.40
2017-11-19T06:50:48.417Z,4.53
2017-11-19T06:53:15.876Z,4.43
2017-11-19T06:55:43.356Z,4.50
2017-11-19T06:58:10.811Z,3.73
2017-11-19T07:00:38.280Z,4.40
2017-11-19T07:03:06.520Z,3.90
2017-11-19T07:05:34.009Z,4.17
2017-11-19T07:08:02.272Z,4.07
2017-11-19T07:10:29.750Z,4.27
2017-11-19T07:12:58.002Z,3.70
2017-11-19T07:15:25.471Z,3.50
2017-11-19T07:17:53.712Z,3.60
2017-11-19T07:20:21.167Z,4.00
2017-11-19T07:22:48.661Z,4.10
2017-11-19T07:25:16.919Z,3.80
2017-11-19T07:27:45.164Z,4.27
2017-11-19T07:30:12.644Z,4.07
2017-11-19T07:32:40.111Z,4.03
2017-11-19T07:35:08.352Z,4.20
2017-11-19T07:37:35.837Z,4.33
2017-11-19T07:40:04.985Z,3.60
2017-11-19T07:42:32.447Z,4.10
2017-11-19T07:44:59.924Z,4.23
2017-11-19T07:47:27.400Z,6.00
2017-11-19T07:49:54.867Z,3.83
2017-11-19T07:52:22.361Z,3.50
2017-11-19T07:54:49.932Z,3.67
2017-11-19T07:57:17.404Z,4.00
2017-11-19T07:59:44.872Z,3.80
2017-11-19T08:02:12.343Z,3.57
2017-11-19T08:04:39.835Z,3.50
2017-11-19T08:07:07.295Z,4.43
2017-11-19T08:09:34.778Z,3.40
2017-11-19T08:12:02.255Z,3.57
2017-11-19T08:14:29.732Z,2.73
2017-11-19T08:16:57.211Z,2.90
2017-11-19T08:19:25.452Z,3.30
2017-11-19T08:21:52.909Z,3.07
2017-11-19T08:24:20.417Z,3.43
2017-11-19T08:26:47.868Z,2.37
2017-11-19T08:29:15.331Z,2.70
2017-11-19T08:31:42.808Z,2.43
2017-11-19T08:34:10.277Z,3.10
2017-11-19T08:36:37.755Z,2.67
2017-11-19T08:39:05.972Z,2.80
2017-11-19T08:41:33.453Z,2.63
2017-11-19T08:44:00.923Z,2.87
2017-11-19T08:46:28.383Z,3.00
2017-11-19T08:48:55.861Z,2.27
2017-11-19T08:51:23.322Z,2.00
2017-11-19T08:53:51.572Z,2.70
2017-11-19T08:56:19.037Z,2.80
2017-11-19T08:58:46.500Z,2.13
2017-11-19T09:01:14.736Z,2.53
2017-11-19T09:03:42.218Z,2.50
2017-11-19T09:06:09.676Z,2.90
2017-11-19T09:08:37.149Z,2.73
2017-11-19T09:11:05.360Z,2.17
2017-11-19T09:13:32.872Z,3.20
2017-11-19T09:16:01.842Z,2.23
2017-11-19T09:18:29.325Z,2.40
2017-11-19T09:20:57.564Z,2.50
2017-11-19T09:23:25.016Z,2.00
2017-11-19T09:25:52.488Z,2.20
2017-11-19T09:28:19.948Z,2.50
2017-11-19T09:30:47.405Z,2.70
2017-11-19T09:33:14.880Z,2.43
2017-11-19T09:35:42.368Z,2.70
2017-11-19T09:38:10.593Z,2.47
2017-11-19T09:40:38.043Z,3.03
2017-11-19T09:43:05.530Z,1.87
2017-11-19T09:45:32.996Z,2.67
2017-11-19T09:48:01.236Z,2.10
2017-11-19T09:50:28.709Z,2.97
2017-11-19T09:52:56.280Z,2.30
2017-11-19T09:55:23.789Z,3.43
2017-11-19T09:57:51.268Z,2.60
2017-11-19T10:00:18.745Z,2.93
2017-11-19T10:02:46.206Z,3.10
2017-11-19T10:05:14.449Z,2.93
2017-11-19T10:07:41.915Z,2.47
2017-11-19T10:10:09.385Z,2.90
2017-11-19T10:12:36.852Z,2.27
2017-11-19T10:15:04.345Z,2.70
2017-11-19T10:17:31.835Z,2.67
2017-11-19T10:19:59.329Z,3.00
2017-11-19T10:22:27.593Z,1.97
2017-11-19T10:24:55.068Z,2.53
2017-11-19T10:27:23.307Z,2.97
2017-11-19T10:29:50.792Z,2.63
2017-11-19T10:32:19.018Z,3.10
2017-11-19T10:34:46.495Z,3.00
2017-11-19T10:37:13.969Z,2.60
2017-11-19T10:39:41.432Z,3.30
2017-11-19T10:42:08.924Z,2.70
2017-11-19T10:44:36.386Z,2.53
2017-11-19T10:47:03.849Z,3.10
2017-11-19T10:49:31.334Z,3.80
2017-11-19T10:51:58.796Z,3.07
2017-11-19T10:54:27.051Z,2.90
2017-11-19T10:56:54.517Z,2.30
2017-11-19T10:59:22.023Z,3.20
2017-11-19T11:01:50.253Z,2.87
2017-11-19T11:04:17.712Z,3.30
2017-11-19T11:06:45.209Z,2.97
2017-11-19T11:09:13.432Z,2.87
2017-11-19T11:11:40.938Z,3.70
2017-11-19T11:14:09.181Z,3.00
2017-11-19T11:16:36.666Z,2.97
2017-11-19T11:19:04.899Z,2.50
2017-11-19T11:21:32.368Z,3.10
2017-11-19T11:23:59.846Z,3.10
2017-11-19T11:26:28.137Z,3.20
2017-11-19T11:28:56.375Z,3.93
2017-11-19T11:31:23.840Z,3.17
2017-11-19T11:33:51.311Z,2.60
2017-11-19T11:36:19.577Z,3.20
2017-11-19T11:38:47.044Z,3.43
2017-11-19T11:41:15.273Z,4.17
2017-11-19T11:43:42.764Z,3.80
2017-11-19T11:46:10.227Z,2.93
2017-11-19T11:48:37.737Z,4.40
2017-11-19T11:51:05.214Z,2.80
2017-11-19T11:53:32.667Z,3.17
2017-11-19T11:56:00.147Z,2.83
2017-11-19T11:58:27.609Z,3.33
2017-11-19T12:00:55.081Z,3.00
2017-11-19T12:03:23.341Z,3.27
2017-11-19T12:05:51.575Z,4.00
2017-11-19T12:08:19.073Z,3.00
2017-11-19T12:10:48.064Z,3.43
2017-11-19T12:13:15.521Z,2.97
2017-11-19T12:15:43.773Z,2.80
2017-11-19T12:18:11.240Z,3.13
2017-11-19T12:20:40.200Z,2.87
2017-11-19T12:23:07.674Z,2.70
2017-11-19T12:25:35.145Z,4.03
2017-11-19T12:28:04.127Z,2.60
2017-11-19T12:30:31.597Z,3.50
2017-11-19T12:32:59.070Z,3.00
2017-11-19T12:35:27.314Z,2.87
2017-11-19T12:37:54.772Z,4.23
2017-11-19T12:40:22.243Z,3.83
2017-11-19T12:42:49.701Z,3.33
2017-11-19T12:45:17.179Z,3.37
2017-11-19T12:47:45.408Z,2.70
2017-11-19T12:50:12.864Z,2.30
2017-11-19T12:52:40.357Z,3.43
2017-11-19T12:55:07.826Z,3.10
2017-11-19T12:57:36.076Z,2.60
2017-11-19T13:00:03.541Z,3.00
2017-11-19T13:02:31.028Z,3.27
2017-11-19T13:04:58.498Z,2.73
2017-11-19T13:07:25.966Z,3.07
2017-11-19T13:09:53.447Z,3.10
2017-11-19T13:12:20.921Z,4.00
2017-11-19T13:14:49.184Z,2.00
2017-11-19T13:17:16.668Z,3.30
2017-11-19T13:19:44.912Z,3.03
2017-11-19T13:22:12.375Z,3.60
2017-11-19T13:24:39.843Z,2.70
2017-11-19T13:27:08.061Z,3.67
2017-11-19T13:29:35.536Z,3.47
2017-11-19T13:32:03.000Z,3.50
2017-11-19T13:34:30.448Z,3.17
2017-11-19T13:36:57.934Z,3.70
2017-11-19T13:39:25.412Z,2.63
2017-11-19T13:41:53.646Z,2.67
2017-11-19T13:44:21.132Z,2.40
2017-11-19T13:46:48.612Z,2.10
2017-11-19T13:49:16.082Z,2.50
2017-11-19T13:51:43.576Z,2.70
2017-11-19T13:54:11.037Z,2.90
2017-11-19T13:56:38.519Z,2.80
2017-11-19T13:59:06.789Z,2.73
2017-11-19T14:01:34.253Z,2.63
2017-11-19T14:04:02.473Z,2.83
2017-11-19T14:06:29.981Z,2.57
2017-11-19T14:08:57.736Z,2.90
2017-11-19T14:11:25.211Z,3.07
2017-11-19T14:13:53.899Z,2.97
2017-11-19T14:16:22.205Z,2.90
2017-11-19T14:18:49.725Z,3.47
2017-11-19T14:21:17.945Z,2.50
2017-11-19T14:23:45.432Z,3.20
2017-11-19T14:26:12.888Z,3.13
2017-11-19T14:28:40.362Z,3.37
2017-11-19T14:31:08.583Z,3.33
2017-11-19T14:33:36.052Z,2.97
2017-11-19T14:36:03.532Z,3.13
2017-11-19T14:38:31.037Z,2.97
2017-11-19T14:40:58.505Z,2.50
2017-11-19T14:43:25.960Z,2.30
2017-11-19T14:45:53.447Z,3.03
2017-11-19T14:48:20.917Z,2.70
2017-11-19T14:50:49.161Z,2.83
2017-11-19T14:53:17.637Z,2.67
2017-11-19T14:55:45.175Z,2.70
2017-11-19T14:58:12.655Z,3.73
2017-11-19T15:00:40.109Z,3.77
2017-11-19T15:03:07.574Z,2.87
2017-11-19T15:05:35.081Z,3.50
2017-11-19T15:08:03.350Z,3.23
2017-11-19T15:10:31.581Z,2.47
2017-11-19T15:12:59.060Z,2.13
2017-11-19T15:15:26.521Z,3.00
2017-11-19T15:17:55.521Z,2.80
2017-11-19T15:20:22.971Z,2.90
2017-11-19T15:22:50.455Z,2.27
2017-11-19T15:25:18.675Z,2.93
2017-11-19T15:27:46.155Z,2.30
2017-11-19T15:30:14.407Z,2.73
2017-11-19T15:32:41.875Z,2.70
2017-11-19T15:35:09.352Z,2.57
2017-11-19T15:37:37.580Z,2.60
2017-11-19T15:40:05.051Z,1.67
2017-11-19T15:42:32.521Z,2.20
2017-11-19T15:45:00.022Z,3.03
2017-11-19T15:47:28.262Z,2.10
2017-11-19T15:49:55.908Z,2.53
2017-11-19T15:52:23.409Z,2.30
2017-11-19T15:54:51.660Z,2.37
2017-11-19T15:57:19.116Z,2.50
2017-11-19T15:59:46.589Z,2.57
2017-11-19T16:02:14.833Z,1.90
2017-11-19T16:04:42.306Z,2.23
2017-11-19T16:07:09.761Z,2.27
2017-11-19T16:09:37.248Z,2.10
2017-11-19T16:12:04.731Z,2.80
2017-11-19T16:14:32.195Z,1.93
2017-11-19T16:16:59.655Z,2.50
2017-11-19T16:19:27.139Z,3.27
2017-11-19T16:21:54.615Z,3.17
2017-11-19T16:24:22.856Z,3.90
2017-11-19T16:26:50.325Z,2.63
2017-11-19T16:29:18.574Z,2.83
2017-11-19T16:31:46.037Z,3.50
2017-11-19T16:34:13.513Z,4.07
2017-11-19T16:36:41.029Z,3.30
2017-11-19T16:39:08.489Z,3.13
2017-11-19T16:41:35.964Z,3.50
2017-11-19T16:44:03.446Z,3.50
2017-11-19T16:46:32.417Z,3.40
2017-11-19T16:48:59.904Z,3.17
2017-11-19T16:51:28.148Z,3.10
2017-11-19T16:53:55.676Z,4.60
2017-11-19T16:56:23.155Z,3.07
2017-11-19T16:58:50.633Z,4.00
2017-11-19T17:01:18.108Z,3.57
2017-11-19T17:03:46.347Z,4.27
2017-11-19T17:06:13.921Z,4.07
2017-11-19T17:08:41.388Z,3.17
2017-11-19T17:11:08.891Z,2.50
2017-11-19T17:13:36.358Z,4.17
2017-11-19T17:16:03.821Z,3.40
2017-11-19T17:18:31.296Z,4.17
2017-11-19T17:20:58.776Z,3.90
2017-11-19T17:23:27.032Z,3.20
2017-11-19T17:25:54.521Z,3.30
2017-11-19T17:28:22.757Z,4.33
2017-11-19T17:30:50.293Z,4.60
2017-11-19T17:33:17.770Z,4.43
2017-11-19T17:35:51.076Z,5.10
2017-11-19T17:38:18.563Z,4.10
2017-11-19T17:40:46.800Z,3.87
2017-11-19T17:43:14.273Z,4.50
2017-11-19T17:45:41.748Z,4.80
2017-11-19T17:48:10.001Z,5.07
2017-11-19T17:50:38.288Z,3.97
2017-11-19T17:53:05.748Z,4.40
2017-11-19T17:55:34.138Z,5.30
2017-11-19T17:58:02.375Z,4.77
2017-11-19T18:00:29.870Z,4.00
2017-11-19T18:02:57.339Z,5.00
2017-11-19T18:05:25.796Z,5.30
2017-11-19T18:07:54.032Z,6.17
2017-11-19T18:10:21.567Z,8.90
2017-11-19T18:12:49.064Z,7.73
2017-11-19T18:15:17.301Z,6.03
2017-11-19T18:17:44.783Z,5.33
2017-11-19T18:20:12.239Z,4.47
2017-11-19T18:22:40.056Z,3.83
2017-11-19T18:25:07.568Z,4.73
2017-11-19T18:27:35.025Z,4.10
2017-11-19T18:30:02.541Z,4.13
2017-11-19T18:32:30.023Z,4.60
2017-11-19T18:34:57.561Z,4.77
2017-11-19T18:37:25.118Z,4.40
2017-11-19T18:39:52.676Z,4.10
2017-11-19T18:42:20.150Z,4.23
2017-11-19T18:44:47.624Z,5.03
2017-11-19T18:47:16.370Z,5.27
2017-11-19T18:49:43.852Z,5.17
2017-11-19T18:52:11.334Z,4.37
2017-11-19T18:54:38.841Z,4.77
2017-11-19T18:57:06.310Z,5.10
2017-11-19T18:59:33.790Z,4.77
2017-11-19T19:02:01.255Z,5.70
2017-11-19T19:04:28.751Z,4.23
2017-11-19T19:06:56.207Z,5.07
2017-11-19T19:09:23.697Z,4.70
2017-11-19T19:11:51.215Z,4.60
2017-11-19T19:14:19.468Z,5.07
2017-11-19T19:16:46.930Z,5.60
2017-11-19T19:19:15.235Z,5.60
2017-11-19T19:21:42.763Z,4.67
2017-11-19T19:24:10.223Z,6.33
2017-11-19T19:26:38.468Z,5.47
2017-11-19T19:29:05.920Z,4.37
2017-11-19T19:31:33.406Z,4.93
2017-11-19T19:34:01.660Z,5.07
2017-11-19T19:36:29.140Z,4.40
2017-11-19T19:38:56.608Z,4.30
2017-11-19T19:41:24.858Z,5.00
2017-11-19T19:43:52.360Z,4.30
2017-11-19T19:46:19.819Z,4.20
2017-11-19T19:48:47.644Z,4.27
2017-11-19T19:51:15.164Z,4.33
2017-11-19T19:53:42.619Z,5.13
2017-11-19T19:56:10.117Z,3.97
2017-11-19T19:58:37.578Z,4.03
2017-11-19T20:01:05.077Z,4.37
2017-11-19T20:03:32.543Z,3.90
2017-11-19T20:06:00.022Z,4.10
2017-11-19T20:08:27.676Z,3.90
2017-11-19T20:10:55.157Z,4.23
2017-11-19T20:13:22.633Z,4.23
2017-11-19T20:15:50.944Z,5.07
2017-11-19T20:18:18.415Z,4.43
2017-11-19T20:20:45.901Z,4.00
2017-11-19T20:23:14.054Z,4.40
2017-11-19T20:25:41.536Z,5.83
2017-11-19T20:28:08.999Z,4.90
2017-11-19T20:30:36.491Z,4.33
2017-11-19T20:33:04.076Z,5.07
2017-11-19T20:35:31.528Z,5.30
2017-11-19T20:37:59.012Z,6.70
2017-11-19T20:40:26.491Z,5.73
2017-11-19T20:42:54.743Z,5.90
2017-11-19T20:45:22.233Z,5.40
2017-11-19T20:47:50.480Z,4.97
2017-11-19T20:50:17.947Z,5.50
2017-11-19T20:52:45.443Z,4.60
2017-11-19T20:55:12.916Z,5.93
2017-11-19T20:57:40.461Z,4.40
2017-11-19T21:00:07.955Z,5.27
2017-11-19T21:02:35.465Z,4.20
2017-11-19T21:05:02.924Z,4.80
2017-11-19T21:07:30.382Z,4.40
2017-11-19T21:09:57.950Z,4.37
2017-11-19T21:12:25.400Z,4.63
2017-11-19T21:14:52.977Z,4.47
2017-11-19T21:17:20.435Z,4.57
2017-11-19T21:19:47.921Z,5.33
2017-11-19T21:22:15.558Z,4.40
2017-11-19T21:24:43.092Z,4.47
2017-11-19T21:27:10.565Z,3.60
2017-11-19T21:29:38.034Z,4.20
2017-11-19T21:32:05.532Z,5.07
2017-11-19T21:34:33.844Z,4.23
2017-11-19T21:37:01.331Z,4.70
2017-11-19T21:39:28.907Z,4.63
2017-11-19T21:41:56.384Z,3.83
2017-11-19T21:44:24.609Z,4.60
2017-11-19T21:46:52.101Z,4.70
2017-11-19T21:49:19.573Z,3.77
2017-11-19T21:51:47.823Z,4.30
2017-11-19T21:54:15.319Z,4.20
2017-11-19T21:56:42.796Z,4.20
2017-11-19T21:59:11.948Z,4.30
2017-11-19T22:01:40.241Z,5.20
2017-11-19T22:04:08.473Z,3.93
2017-11-19T22:06:35.946Z,5.27
2017-11-19T22:09:03.467Z,4.20
2017-11-19T22:11:30.944Z,4.67
2017-11-19T22:13:58.433Z,3.93
2017-11-19T22:16:26.678Z,3.87
2017-11-19T22:18:54.172Z,4.60
2017-11-19T22:21:22.396Z,4.30
2017-11-19T22:23:49.882Z,4.60
2017-11-19T22:26:17.344Z,5.20
2017-11-19T22:28:45.603Z,4.30
2017-11-19T22:31:13.061Z,5.30
2017-11-19T22:33:40.619Z,5.70
2017-11-19T22:36:08.178Z,4.63
2017-11-19T22:38:35.648Z,5.33
2017-11-19T22:41:03.199Z,5.50
2017-11-19T22:43:30.672Z,5.30
2017-11-19T22:45:58.937Z,5.80
2017-11-19T22:48:26.393Z,5.30
2017-11-19T22:50:53.847Z,5.63
2017-11-19T22:53:22.091Z,5.50
2017-11-19T22:55:49.548Z,5.30
2017-11-19T22:58:17.023Z,5.80
2017-11-19T23:00:44.491Z,6.13
2017-11-19T23:03:13.328Z,6.47
2017-11-19T23:05:40.792Z,5.57
2017-11-19T23:08:08.266Z,5.53
2017-11-19T23:10:35.748Z,7.33
2017-11-19T23:13:03.208Z,5.67
2017-11-19T23:15:30.663Z,5.53
2017-11-19T23:17:58.143Z,5.77
2017-11-19T23:20:25.626Z,6.03
2017-11-19T23:22:53.086Z,6.00
2017-11-19T23:25:20.571Z,6.30
2017-11-19T23:27:48.032Z,7.40
2017-11-19T23:30:15.572Z,7.40
2017-11-19T23:32:43.037Z,6.93
2017-11-19T23:35:10.505Z,7.43
2017-11-19T23:37:37.981Z,7.80
2017-11-19T23:40:06.207Z,7.53
2017-11-19T23:42:33.751Z,9.50
2017-11-19T23:45:01.228Z,8.17
2017-11-19T23:47:28.687Z,7.60
2017-11-19T23:49:56.171Z,7.80
2017-11-19T23:52:23.627Z,8.70
2017-11-19T23:54:51.152Z,8.53
2017-11-19T23:57:18.643Z,9.87
2017-11-19T23:59:46.102Z,8.40
